createdAt,value
2018-08-07T00:00:00.843Z,22.44
2018-08-07T00:01:00.859Z,22.47
2018-08-07T00:02:00.935Z,22.38
2018-08-07T00:03:01.003Z,22.44
2018-08-07T00:04:01.063Z,22.38
2018-08-07T00:05:01.135Z,22.35
2018-08-07T00:06:01.205Z,22.35
2018-08-07T00:07:01.415Z,22.38
2018-08-07T00:08:01.335Z,22.38
2018-08-07T00:09:01.400Z,22.35
2018-08-07T00:10:01.468Z,22.30
2018-08-07T00:11:01.536Z,22.29
2018-08-07T00:12:01.608Z,22.26
2018-08-07T00:13:01.683Z,22.23
2018-08-07T00:14:01.736Z,22.23
2018-08-07T00:15:01.804Z,22.22
2018-08-07T00:16:01.872Z,22.20
2018-08-07T00:17:01.944Z,22.25
2018-08-07T00:18:02.016Z,22.20
2018-08-07T00:19:02.076Z,22.22
2018-08-07T00:20:02.142Z,22.22
2018-08-07T00:21:02.220Z,22.22
2018-08-07T00:22:02.297Z,22.22
2018-08-07T00:23:02.502Z,22.18
2018-08-07T00:24:02.416Z,22.18
2018-08-07T00:25:02.476Z,22.18
2018-08-07T00:26:02.544Z,22.17
2018-08-07T00:27:02.613Z,22.15
2018-08-07T00:28:02.684Z,22.18
2018-08-07T00:29:02.757Z,22.17
2018-08-07T00:30:02.812Z,22.14
2018-08-07T00:31:02.880Z,22.18
2018-08-07T00:32:02.948Z,22.14
2018-08-07T00:33:03.024Z,22.02
2018-08-07T00:34:03.088Z,22.06
2018-08-07T00:35:03.149Z,22.13
2018-08-07T00:36:03.216Z,22.15
2018-08-07T00:37:03.284Z,22.08
2018-08-07T00:38:03.457Z,22.08
2018-08-07T00:39:03.417Z,22.08
2018-08-07T00:40:03.485Z,22.08
2018-08-07T00:41:03.557Z,22.06
2018-08-07T00:42:03.627Z,21.98
2018-08-07T00:43:03.696Z,22.02
2018-08-07T00:44:03.760Z,21.91
2018-08-07T00:45:03.820Z,21.98
2018-08-07T00:46:03.889Z,21.91
2018-08-07T00:47:03.958Z,22.00
2018-08-07T00:48:04.029Z,21.95
2018-08-07T00:49:04.096Z,21.93
2018-08-07T00:50:04.191Z,21.92
2018-08-07T00:51:04.224Z,21.93
2018-08-07T00:52:04.294Z,21.88
2018-08-07T00:53:04.365Z,21.91
2018-08-07T00:54:04.432Z,21.95
2018-08-07T00:55:04.493Z,21.85
2018-08-07T00:56:04.561Z,21.85
2018-08-07T00:57:04.629Z,21.79
2018-08-07T00:58:04.697Z,21.83
2018-08-07T00:59:04.776Z,21.79
2018-08-07T01:00:04.829Z,21.80
2018-08-07T01:01:04.893Z,21.85
2018-08-07T01:02:04.961Z,21.80
2018-08-07T01:03:05.041Z,21.75
2018-08-07T01:04:05.101Z,21.70
2018-08-07T01:05:05.161Z,21.70
2018-08-07T01:06:05.229Z,21.64
2018-08-07T01:07:05.297Z,21.58
2018-08-07T01:08:05.705Z,21.67
2018-08-07T01:09:05.429Z,21.64
2018-08-07T01:10:05.497Z,21.57
2018-08-07T01:11:05.561Z,21.55
2018-08-07T01:12:05.633Z,21.54
2018-08-07T01:13:05.697Z,21.58
2018-08-07T01:14:05.969Z,21.51
2018-08-07T01:15:05.833Z,21.55
2018-08-07T01:16:05.902Z,21.45
2018-08-07T01:17:05.966Z,21.45
2018-08-07T01:18:06.036Z,21.43
2018-08-07T01:19:06.118Z,21.39
2018-08-07T01:20:06.174Z,21.42
2018-08-07T01:21:06.233Z,21.48
2018-08-07T01:22:06.302Z,21.48
2018-08-07T01:23:06.374Z,21.36
2018-08-07T01:24:06.442Z,21.39
2018-08-07T01:25:06.514Z,21.39
2018-08-07T01:26:06.570Z,21.36
2018-08-07T01:27:06.652Z,21.30
2018-08-07T01:28:06.702Z,21.29
2018-08-07T01:29:06.786Z,21.30
2018-08-07T01:30:06.846Z,21.33
2018-08-07T01:31:06.908Z,21.32
2018-08-07T01:32:06.970Z,21.32
2018-08-07T01:33:07.038Z,21.36
2018-08-07T01:34:07.126Z,21.36
2018-08-07T01:35:07.174Z,21.42
2018-08-07T01:36:07.238Z,21.35
2018-08-07T01:37:07.311Z,21.43
2018-08-07T01:38:07.370Z,21.48
2018-08-07T01:39:07.446Z,21.46
2018-08-07T01:40:07.514Z,21.58
2018-08-07T01:41:07.574Z,21.51
2018-08-07T01:42:07.639Z,21.51
2018-08-07T01:43:07.706Z,21.42
2018-08-07T01:44:07.782Z,21.52
2018-08-07T01:45:07.863Z,21.46
2018-08-07T01:46:07.907Z,21.45
2018-08-07T01:47:07.974Z,21.36
2018-08-07T01:48:08.043Z,21.35
2018-08-07T01:49:08.259Z,21.32
2018-08-07T01:50:08.175Z,21.32
2018-08-07T01:51:08.243Z,21.25
2018-08-07T01:52:08.307Z,21.29
2018-08-07T01:53:08.375Z,21.22
2018-08-07T01:54:08.451Z,21.25
2018-08-07T01:55:08.518Z,21.29
2018-08-07T01:56:08.580Z,21.15
2018-08-07T01:57:08.645Z,21.07
2018-08-07T01:58:08.707Z,21.14
2018-08-07T01:59:08.783Z,21.14
2018-08-07T02:00:08.860Z,21.06
2018-08-07T02:01:08.907Z,21.03
2018-08-07T02:02:08.975Z,21.02
2018-08-07T02:03:09.046Z,20.99
2018-08-07T02:04:09.111Z,20.97
2018-08-07T02:05:09.523Z,20.99
2018-08-07T02:06:09.247Z,20.96
2018-08-07T02:07:09.312Z,20.93
2018-08-07T02:08:09.375Z,20.95
2018-08-07T02:09:09.443Z,20.92
2018-08-07T02:10:09.511Z,20.95
2018-08-07T02:11:09.743Z,20.85
2018-08-07T02:12:09.644Z,20.84
2018-08-07T02:13:09.711Z,20.84
2018-08-07T02:14:09.776Z,20.78
2018-08-07T02:15:09.844Z,20.82
2018-08-07T02:16:09.916Z,20.74
2018-08-07T02:17:09.983Z,20.75
2018-08-07T02:18:10.048Z,20.66
2018-08-07T02:19:10.112Z,20.72
2018-08-07T02:20:10.176Z,20.67
2018-08-07T02:21:10.272Z,20.67
2018-08-07T02:22:10.312Z,20.65
2018-08-07T02:23:10.378Z,20.74
2018-08-07T02:24:10.444Z,20.69
2018-08-07T02:25:10.512Z,20.60
2018-08-07T02:26:10.604Z,20.62
2018-08-07T02:27:10.652Z,20.59
2018-08-07T02:28:10.712Z,20.60
2018-08-07T02:29:10.776Z,20.56
2018-08-07T02:30:10.844Z,20.55
2018-08-07T02:31:10.916Z,20.58
2018-08-07T02:32:10.984Z,20.50
2018-08-07T02:33:11.044Z,20.55
2018-08-07T02:34:11.108Z,20.51
2018-08-07T02:35:11.179Z,20.48
2018-08-07T02:36:11.244Z,20.52
2018-08-07T02:37:11.417Z,20.50
2018-08-07T02:38:11.378Z,20.51
2018-08-07T02:39:11.449Z,20.50
2018-08-07T02:40:11.509Z,20.47
2018-08-07T02:41:11.577Z,20.48
2018-08-07T02:42:11.650Z,20.43
2018-08-07T02:43:11.717Z,20.34
2018-08-07T02:44:11.777Z,20.39
2018-08-07T02:45:11.842Z,20.28
2018-08-07T02:46:11.909Z,20.36
2018-08-07T02:47:11.981Z,20.37
2018-08-07T02:48:12.049Z,20.37
2018-08-07T02:49:12.111Z,20.37
2018-08-07T02:50:12.174Z,20.39
2018-08-07T02:51:12.241Z,20.34
2018-08-07T02:52:12.309Z,20.32
2018-08-07T02:53:12.721Z,20.36
2018-08-07T02:54:12.441Z,20.37
2018-08-07T02:55:12.508Z,20.40
2018-08-07T02:56:12.577Z,20.39
2018-08-07T02:57:12.641Z,20.50
2018-08-07T02:58:12.727Z,20.47
2018-08-07T02:59:12.881Z,20.44
2018-08-07T03:00:12.842Z,20.48
2018-08-07T03:01:12.910Z,20.50
2018-08-07T03:02:12.976Z,20.55
2018-08-07T03:03:13.039Z,20.44
2018-08-07T03:04:13.369Z,20.48
2018-08-07T03:05:13.170Z,20.56
2018-08-07T03:06:13.237Z,20.51
2018-08-07T03:07:13.306Z,20.47
2018-08-07T03:08:13.383Z,20.36
2018-08-07T03:09:13.454Z,20.32
2018-08-07T03:10:13.511Z,20.34
2018-08-07T03:11:13.570Z,20.37
2018-08-07T03:12:13.638Z,20.34
2018-08-07T03:13:13.709Z,20.36
2018-08-07T03:14:13.782Z,20.28
2018-08-07T03:15:13.842Z,20.29
2018-08-07T03:16:13.902Z,20.31
2018-08-07T03:17:13.970Z,20.37
2018-08-07T03:18:14.034Z,20.31
2018-08-07T03:19:14.128Z,20.32
2018-08-07T03:20:14.170Z,20.28
2018-08-07T03:21:14.234Z,20.18
2018-08-07T03:22:14.302Z,20.22
2018-08-07T03:23:14.370Z,20.22
2018-08-07T03:24:14.445Z,20.26
2018-08-07T03:25:14.511Z,20.25
2018-08-07T03:26:14.566Z,20.19
2018-08-07T03:27:14.634Z,20.22
2018-08-07T03:28:14.701Z,20.29
2018-08-07T03:29:14.775Z,20.43
2018-08-07T03:30:14.840Z,20.41
2018-08-07T03:31:14.901Z,20.34
2018-08-07T03:32:14.970Z,20.34
2018-08-07T03:33:15.031Z,20.48
2018-08-07T03:34:15.218Z,20.62
2018-08-07T03:35:15.162Z,20.60
2018-08-07T03:36:15.230Z,20.60
2018-08-07T03:37:15.294Z,20.56
2018-08-07T03:38:15.363Z,20.63
2018-08-07T03:39:15.434Z,20.69
2018-08-07T03:40:15.506Z,20.67
2018-08-07T03:41:15.562Z,20.66
2018-08-07T03:42:15.633Z,20.72
2018-08-07T03:43:15.695Z,20.67
2018-08-07T03:44:15.767Z,20.72
2018-08-07T03:45:15.831Z,20.65
2018-08-07T03:46:15.895Z,20.69
2018-08-07T03:47:15.959Z,20.74
2018-08-07T03:48:16.027Z,20.67
2018-08-07T03:49:16.167Z,20.69
2018-08-07T03:50:16.165Z,20.70
2018-08-07T03:51:16.219Z,20.69
2018-08-07T03:52:16.291Z,20.60
2018-08-07T03:53:16.356Z,20.62
2018-08-07T03:54:16.431Z,20.60
2018-08-07T03:55:16.495Z,20.51
2018-08-07T03:56:16.566Z,20.52
2018-08-07T03:57:16.623Z,20.41
2018-08-07T03:58:16.687Z,20.43
2018-08-07T03:59:16.759Z,20.29
2018-08-07T04:00:16.828Z,20.37
2018-08-07T04:01:16.892Z,20.37
2018-08-07T04:02:16.952Z,20.37
2018-08-07T04:03:17.020Z,20.28
2018-08-07T04:04:17.088Z,20.37
2018-08-07T04:05:17.307Z,20.40
2018-08-07T04:06:17.223Z,20.34
2018-08-07T04:07:17.283Z,20.28
2018-08-07T04:08:17.352Z,20.34
2018-08-07T04:09:17.416Z,20.37
2018-08-07T04:10:17.493Z,20.36
2018-08-07T04:11:17.556Z,20.37
2018-08-07T04:12:17.617Z,20.40
2018-08-07T04:13:17.689Z,20.37
2018-08-07T04:14:17.748Z,20.34
2018-08-07T04:15:17.820Z,20.31
2018-08-07T04:16:17.888Z,20.34
2018-08-07T04:17:17.948Z,20.37
2018-08-07T04:18:18.012Z,20.37
2018-08-07T04:19:18.081Z,20.31
2018-08-07T04:20:18.492Z,20.41
2018-08-07T04:21:18.212Z,20.48
2018-08-07T04:22:18.284Z,20.37
2018-08-07T04:23:18.344Z,20.32
2018-08-07T04:24:18.412Z,20.47
2018-08-07T04:25:18.479Z,20.43
2018-08-07T04:26:18.556Z,20.59
2018-08-07T04:27:18.609Z,20.59
2018-08-07T04:28:18.676Z,20.58
2018-08-07T04:29:18.746Z,20.52
2018-08-07T04:30:18.812Z,20.62
2018-08-07T04:31:18.883Z,20.60
2018-08-07T04:32:18.948Z,20.56
2018-08-07T04:33:19.008Z,20.59
2018-08-07T04:34:19.077Z,20.62
2018-08-07T04:35:19.141Z,20.63
2018-08-07T04:36:19.235Z,20.58
2018-08-07T04:37:19.277Z,20.58
2018-08-07T04:38:19.337Z,20.60
2018-08-07T04:39:19.405Z,20.60
2018-08-07T04:40:19.473Z,20.62
2018-08-07T04:41:19.546Z,20.60
2018-08-07T04:42:19.609Z,20.62
2018-08-07T04:43:19.697Z,20.62
2018-08-07T04:44:19.736Z,20.58
2018-08-07T04:45:19.801Z,20.56
2018-08-07T04:46:19.877Z,20.62
2018-08-07T04:47:19.941Z,20.58
2018-08-07T04:48:20.001Z,20.65
2018-08-07T04:49:20.081Z,20.74
2018-08-07T04:50:20.136Z,20.69
2018-08-07T04:51:20.217Z,20.77
2018-08-07T04:52:20.281Z,20.84
2018-08-07T04:53:20.333Z,20.87
2018-08-07T04:54:20.413Z,20.90
2018-08-07T04:55:20.470Z,21.02
2018-08-07T04:56:20.541Z,21.03
2018-08-07T04:57:20.605Z,21.06
2018-08-07T04:58:20.669Z,21.11
2018-08-07T04:59:20.729Z,21.09
2018-08-07T05:00:20.798Z,21.20
2018-08-07T05:01:20.861Z,21.21
2018-08-07T05:02:20.933Z,21.18
2018-08-07T05:03:21.002Z,21.14
2018-08-07T05:04:21.061Z,21.21
2018-08-07T05:05:23.116Z,21.24
2018-08-07T05:06:21.221Z,21.24
2018-08-07T05:07:21.261Z,21.29
2018-08-07T05:08:21.434Z,21.29
2018-08-07T05:09:21.394Z,21.32
2018-08-07T05:10:21.502Z,21.35
2018-08-07T05:11:21.528Z,21.45
2018-08-07T05:12:21.598Z,21.42
2018-08-07T05:13:21.666Z,21.40
2018-08-07T05:14:21.816Z,21.50
2018-08-07T05:15:21.790Z,21.60
2018-08-07T05:16:21.858Z,21.54
2018-08-07T05:17:21.926Z,21.64
2018-08-07T05:18:21.998Z,21.64
2018-08-07T05:19:22.062Z,21.67
2018-08-07T05:20:22.134Z,21.69
2018-08-07T05:21:22.190Z,21.79
2018-08-07T05:22:22.259Z,21.75
2018-08-07T05:23:22.340Z,21.73
2018-08-07T05:24:22.390Z,21.89
2018-08-07T05:25:22.466Z,21.83
2018-08-07T05:26:22.522Z,21.96
2018-08-07T05:27:22.590Z,21.96
2018-08-07T05:28:22.662Z,22.02
2018-08-07T05:29:22.726Z,22.02
2018-08-07T05:30:22.790Z,22.06
2018-08-07T05:31:22.859Z,22.14
2018-08-07T05:32:22.922Z,22.15
2018-08-07T05:33:22.994Z,22.23
2018-08-07T05:34:23.070Z,22.20
2018-08-07T05:35:23.123Z,22.30
2018-08-07T05:36:23.191Z,22.29
2018-08-07T05:37:23.254Z,22.38
2018-08-07T05:38:23.343Z,22.32
2018-08-07T05:39:23.387Z,22.33
2018-08-07T05:40:23.457Z,22.36
2018-08-07T05:41:23.527Z,22.43
2018-08-07T05:42:23.615Z,22.48
2018-08-07T05:43:23.663Z,22.53
2018-08-07T05:44:23.727Z,22.55
2018-08-07T05:45:23.787Z,22.60
2018-08-07T05:46:23.867Z,22.69
2018-08-07T05:47:23.924Z,22.78
2018-08-07T05:48:23.995Z,22.80
2018-08-07T05:49:24.065Z,22.88
2018-08-07T05:50:24.265Z,22.93
2018-08-07T05:51:24.199Z,23.03
2018-08-07T05:52:24.257Z,23.06
2018-08-07T05:53:24.323Z,23.06
2018-08-07T05:54:24.496Z,23.10
2018-08-07T05:55:24.456Z,23.15
2018-08-07T05:56:24.526Z,23.17
2018-08-07T05:57:24.591Z,23.24
2018-08-07T05:58:24.655Z,23.28
2018-08-07T05:59:24.732Z,23.27
2018-08-07T06:00:24.796Z,23.34
2018-08-07T06:01:24.862Z,23.36
2018-08-07T06:02:24.927Z,23.40
2018-08-07T06:03:24.992Z,23.43
2018-08-07T06:04:25.064Z,23.47
2018-08-07T06:05:25.136Z,23.50
2018-08-07T06:06:25.192Z,23.61
2018-08-07T06:07:25.265Z,23.54
2018-08-07T06:08:25.328Z,23.63
2018-08-07T06:09:25.401Z,23.74
2018-08-07T06:10:25.468Z,23.66
2018-08-07T06:11:25.528Z,23.78
2018-08-07T06:12:25.596Z,23.91
2018-08-07T06:13:25.661Z,23.91
2018-08-07T06:14:25.744Z,23.93
2018-08-07T06:15:25.808Z,23.98
2018-08-07T06:16:25.864Z,24.02
2018-08-07T06:17:25.928Z,24.11
2018-08-07T06:18:26.011Z,24.13
2018-08-07T06:19:26.072Z,24.21
2018-08-07T06:20:26.140Z,24.26
2018-08-07T06:21:26.201Z,24.29
2018-08-07T06:22:26.264Z,24.33
2018-08-07T06:23:26.337Z,24.45
2018-08-07T06:24:26.416Z,24.40
2018-08-07T06:25:26.473Z,24.54
2018-08-07T06:26:26.537Z,24.60
2018-08-07T06:27:26.601Z,24.69
2018-08-07T06:28:26.669Z,24.68
2018-08-07T06:29:26.745Z,24.77
2018-08-07T06:30:26.845Z,24.84
2018-08-07T06:31:26.916Z,24.78
2018-08-07T06:32:26.941Z,24.99
2018-08-07T06:33:27.005Z,25.06
2018-08-07T06:34:27.193Z,25.06
2018-08-07T06:35:27.141Z,25.14
2018-08-07T06:36:27.210Z,25.17
2018-08-07T06:37:27.277Z,25.22
2018-08-07T06:38:27.345Z,25.33
2018-08-07T06:39:27.426Z,25.36
2018-08-07T06:40:27.485Z,25.43
2018-08-07T06:41:27.550Z,25.48
2018-08-07T06:42:27.613Z,25.58
2018-08-07T06:43:27.683Z,25.66
2018-08-07T06:44:27.762Z,25.65
2018-08-07T06:45:27.826Z,25.87
2018-08-07T06:46:27.886Z,25.99
2018-08-07T06:47:27.954Z,26.36
2018-08-07T06:48:28.022Z,26.83
2018-08-07T06:49:28.089Z,27.54
2018-08-07T06:50:28.268Z,28.75
2018-08-07T06:51:28.226Z,29.44
2018-08-07T06:52:28.298Z,30.24
2018-08-07T06:53:28.366Z,30.78
2018-08-07T06:54:28.438Z,31.20
2018-08-07T06:55:28.514Z,31.81
2018-08-07T06:56:28.586Z,32.18
2018-08-07T06:57:28.654Z,32.58
2018-08-07T06:58:28.726Z,32.97
2018-08-07T06:59:28.801Z,33.50
2018-08-07T07:00:28.890Z,33.94
2018-08-07T07:01:28.954Z,34.33
2018-08-07T07:02:29.022Z,34.73
2018-08-07T07:03:29.114Z,35.02
2018-08-07T07:04:29.193Z,35.18
2018-08-07T07:05:29.518Z,35.44
2018-08-07T07:06:29.326Z,35.51
2018-08-07T07:07:29.414Z,35.51
2018-08-07T07:08:29.482Z,35.44
2018-08-07T07:09:29.581Z,35.48
2018-08-07T07:10:29.666Z,35.56
2018-08-07T07:11:29.723Z,35.67
2018-08-07T07:12:29.796Z,35.78
2018-08-07T07:13:29.870Z,35.86
2018-08-07T07:14:29.950Z,36.16
2018-08-07T07:15:30.038Z,36.58
2018-08-07T07:16:30.115Z,36.74
2018-08-07T07:17:30.186Z,36.95
2018-08-07T07:18:30.271Z,37.26
2018-08-07T07:19:30.346Z,37.42
2018-08-07T07:20:30.430Z,37.58
2018-08-07T07:21:30.510Z,37.51
2018-08-07T07:22:30.592Z,37.67
2018-08-07T07:23:30.669Z,37.75
2018-08-07T07:24:30.746Z,37.99
2018-08-07T07:25:30.834Z,38.06
2018-08-07T07:26:30.964Z,38.31
2018-08-07T07:27:30.987Z,38.57
2018-08-07T07:28:31.075Z,38.65
2018-08-07T07:29:31.152Z,38.58
2018-08-07T07:30:31.231Z,38.86
2018-08-07T07:31:31.671Z,39.02
2018-08-07T07:32:31.399Z,39.25
2018-08-07T07:33:31.475Z,39.26
2018-08-07T07:34:31.578Z,39.38
2018-08-07T07:35:31.640Z,39.34
2018-08-07T07:36:31.735Z,39.33
2018-08-07T07:37:31.811Z,39.19
2018-08-07T07:38:31.888Z,39.17
2018-08-07T07:39:31.970Z,39.30
2018-08-07T07:40:32.107Z,39.53
2018-08-07T07:41:32.288Z,39.78
2018-08-07T07:42:32.216Z,39.85
2018-08-07T07:43:32.303Z,39.85
2018-08-07T07:44:32.379Z,39.93
2018-08-07T07:45:32.464Z,39.81
2018-08-07T07:46:32.551Z,39.58
2018-08-07T07:47:32.639Z,39.38
2018-08-07T07:48:32.711Z,39.38
2018-08-07T07:49:32.845Z,38.92
2018-08-07T07:50:32.876Z,39.17
2018-08-07T07:51:32.967Z,39.34
2018-08-07T07:52:33.048Z,39.29
2018-08-07T07:53:33.124Z,39.26
2018-08-07T07:54:33.208Z,39.17
2018-08-07T07:55:33.292Z,39.12
2018-08-07T07:56:33.388Z,39.37
2018-08-07T07:57:33.460Z,39.37
2018-08-07T07:58:33.540Z,39.44
2018-08-07T07:59:33.620Z,39.31
2018-08-07T08:00:33.704Z,39.60
2018-08-07T08:01:33.793Z,39.74
2018-08-07T08:02:33.876Z,39.87
2018-08-07T08:03:33.952Z,40.15
2018-08-07T08:04:34.037Z,40.31
2018-08-07T08:05:34.148Z,40.43
2018-08-07T08:06:34.248Z,40.47
2018-08-07T08:07:34.282Z,40.68
2018-08-07T08:08:34.369Z,40.96
2018-08-07T08:09:34.448Z,41.03
2018-08-07T08:10:34.536Z,40.78
2018-08-07T08:11:34.629Z,40.95
2018-08-07T08:12:34.709Z,40.82
2018-08-07T08:13:34.784Z,40.72
2018-08-07T08:14:34.869Z,41.06
2018-08-07T08:15:34.949Z,41.12
2018-08-07T08:16:35.046Z,41.14
2018-08-07T08:17:35.121Z,41.38
2018-08-07T08:18:35.212Z,41.15
2018-08-07T08:19:35.281Z,41.34
2018-08-07T08:20:35.369Z,41.49
2018-08-07T08:21:35.457Z,41.71
2018-08-07T08:22:35.541Z,41.70
2018-08-07T08:23:35.618Z,41.65
2018-08-07T08:24:35.701Z,41.85
2018-08-07T08:25:35.787Z,41.71
2018-08-07T08:26:35.875Z,41.62
2018-08-07T08:27:35.957Z,41.66
2018-08-07T08:28:36.034Z,41.45
2018-08-07T08:29:36.228Z,41.59
2018-08-07T08:30:36.209Z,41.83
2018-08-07T08:31:36.445Z,41.92
2018-08-07T08:32:36.369Z,41.57
2018-08-07T08:33:36.449Z,41.82
2018-08-07T08:34:36.542Z,41.70
2018-08-07T08:35:36.657Z,41.83
2018-08-07T08:36:36.710Z,41.70
2018-08-07T08:37:36.809Z,41.95
2018-08-07T08:38:36.873Z,42.17
2018-08-07T08:39:36.950Z,42.29
2018-08-07T08:40:37.033Z,41.97
2018-08-07T08:41:37.142Z,41.88
2018-08-07T08:42:37.202Z,41.80
2018-08-07T08:43:37.299Z,41.83
2018-08-07T08:44:37.370Z,41.83
2018-08-07T08:45:37.450Z,41.77
2018-08-07T08:46:37.546Z,41.38
2018-08-07T08:47:37.622Z,41.18
2018-08-07T08:48:37.730Z,41.16
2018-08-07T08:49:37.794Z,41.40
2018-08-07T08:50:37.870Z,41.56
2018-08-07T08:51:37.954Z,41.68
2018-08-07T08:52:38.038Z,41.37
2018-08-07T08:53:38.118Z,41.19
2018-08-07T08:54:38.199Z,41.37
2018-08-07T08:55:38.278Z,41.14
2018-08-07T08:56:38.518Z,41.19
2018-08-07T08:57:38.457Z,41.29
2018-08-07T08:58:38.534Z,41.38
2018-08-07T08:59:38.615Z,41.43
2018-08-07T09:00:38.694Z,41.71
2018-08-07T09:01:38.783Z,41.82
2018-08-07T09:02:38.865Z,41.74
2018-08-07T09:03:38.953Z,41.15
2018-08-07T09:04:39.035Z,41.10
2018-08-07T09:05:39.102Z,41.00
2018-08-07T09:06:39.211Z,40.87
2018-08-07T09:07:39.270Z,40.73
2018-08-07T09:08:39.350Z,40.78
2018-08-07T09:09:39.443Z,40.80
2018-08-07T09:10:39.620Z,40.97
2018-08-07T09:11:39.603Z,40.96
2018-08-07T09:12:39.687Z,41.00
2018-08-07T09:13:39.759Z,40.88
2018-08-07T09:14:39.843Z,40.54
2018-08-07T09:15:39.919Z,40.87
2018-08-07T09:16:40.011Z,40.87
2018-08-07T09:17:40.091Z,41.15
2018-08-07T09:18:40.173Z,41.22
2018-08-07T09:19:40.332Z,41.62
2018-08-07T09:20:40.331Z,41.68
2018-08-07T09:21:40.419Z,41.77
2018-08-07T09:22:40.500Z,41.87
2018-08-07T09:23:40.575Z,41.92
2018-08-07T09:24:40.664Z,41.98
2018-08-07T09:25:40.840Z,41.56
2018-08-07T09:26:40.823Z,41.14
2018-08-07T09:27:40.907Z,41.16
2018-08-07T09:28:40.979Z,40.87
2018-08-07T09:29:41.063Z,40.92
2018-08-07T09:30:41.143Z,41.14
2018-08-07T09:31:41.615Z,41.28
2018-08-07T09:32:41.304Z,41.34
2018-08-07T09:33:41.384Z,41.49
2018-08-07T09:34:41.467Z,41.26
2018-08-07T09:35:41.559Z,41.49
2018-08-07T09:36:41.636Z,41.55
2018-08-07T09:37:41.715Z,41.60
2018-08-07T09:38:41.787Z,41.65
2018-08-07T09:39:41.941Z,41.85
2018-08-07T09:40:41.955Z,41.53
2018-08-07T09:41:42.036Z,41.56
2018-08-07T09:42:42.115Z,41.47
2018-08-07T09:43:42.191Z,41.63
2018-08-07T09:44:42.275Z,41.74
2018-08-07T09:45:42.356Z,41.74
2018-08-07T09:46:42.496Z,41.94
2018-08-07T09:47:42.529Z,41.80
2018-08-07T09:48:42.591Z,42.06
2018-08-07T09:49:42.681Z,42.33
2018-08-07T09:50:42.766Z,42.57
2018-08-07T09:51:42.840Z,42.55
2018-08-07T09:52:42.927Z,42.69
2018-08-07T09:53:42.992Z,42.58
2018-08-07T09:54:43.072Z,42.62
2018-08-07T09:55:43.152Z,42.57
2018-08-07T09:56:43.232Z,42.53
2018-08-07T09:57:43.332Z,42.50
2018-08-07T09:58:43.392Z,42.48
2018-08-07T09:59:43.472Z,42.36
2018-08-07T10:00:43.560Z,42.43
2018-08-07T10:01:43.632Z,42.21
2018-08-07T10:02:43.720Z,42.28
2018-08-07T10:03:43.804Z,42.33
2018-08-07T10:04:43.874Z,42.28
2018-08-07T10:05:43.952Z,42.06
2018-08-07T10:06:44.032Z,41.78
2018-08-07T10:07:44.144Z,41.74
2018-08-07T10:08:44.193Z,41.62
2018-08-07T10:09:44.283Z,41.57
2018-08-07T10:10:44.352Z,41.68
2018-08-07T10:11:44.432Z,41.78
2018-08-07T10:12:44.521Z,41.85
2018-08-07T10:13:44.600Z,41.95
2018-08-07T10:14:44.671Z,42.16
2018-08-07T10:15:44.748Z,42.36
2018-08-07T10:16:44.828Z,42.39
2018-08-07T10:17:44.920Z,42.14
2018-08-07T10:18:44.997Z,41.92
2018-08-07T10:19:45.076Z,41.65
2018-08-07T10:20:45.149Z,41.34
2018-08-07T10:21:45.230Z,41.21
2018-08-07T10:22:45.325Z,41.29
2018-08-07T10:23:45.384Z,41.37
2018-08-07T10:24:45.464Z,41.33
2018-08-07T10:25:45.539Z,41.25
2018-08-07T10:26:45.621Z,41.29
2018-08-07T10:27:45.704Z,41.18
2018-08-07T10:28:45.785Z,41.38
2018-08-07T10:29:45.857Z,41.44
2018-08-07T10:30:45.941Z,41.22
2018-08-07T10:31:46.029Z,41.19
2018-08-07T10:32:46.373Z,41.26
2018-08-07T10:33:46.173Z,41.14
2018-08-07T10:34:46.257Z,41.18
2018-08-07T10:35:46.329Z,41.22
2018-08-07T10:36:46.409Z,41.21
2018-08-07T10:37:46.537Z,41.15
2018-08-07T10:38:46.573Z,41.02
2018-08-07T10:39:46.645Z,40.85
2018-08-07T10:40:46.792Z,40.59
2018-08-07T10:41:46.801Z,40.44
2018-08-07T10:42:46.905Z,40.50
2018-08-07T10:43:47.195Z,40.30
2018-08-07T10:44:47.041Z,40.49
2018-08-07T10:45:47.114Z,40.56
2018-08-07T10:46:47.194Z,40.62
2018-08-07T10:47:47.626Z,40.84
2018-08-07T10:48:47.350Z,40.84
2018-08-07T10:49:47.430Z,40.70
2018-08-07T10:50:47.533Z,40.62
2018-08-07T10:51:47.582Z,40.61
2018-08-07T10:52:47.666Z,40.56
2018-08-07T10:53:47.742Z,40.26
2018-08-07T10:54:47.814Z,40.24
2018-08-07T10:55:47.894Z,40.23
2018-08-07T10:56:47.970Z,40.30
2018-08-07T10:57:48.055Z,40.27
2018-08-07T10:58:48.150Z,40.06
2018-08-07T10:59:48.202Z,39.92
2018-08-07T11:00:48.282Z,39.86
2018-08-07T11:01:48.358Z,39.83
2018-08-07T11:02:48.438Z,40.09
2018-08-07T11:03:48.526Z,39.74
2018-08-07T11:04:48.598Z,39.80
2018-08-07T11:05:48.745Z,40.05
2018-08-07T11:06:48.746Z,40.06
2018-08-07T11:07:48.822Z,39.65
2018-08-07T11:08:48.909Z,39.58
2018-08-07T11:09:48.986Z,39.58
2018-08-07T11:10:49.059Z,39.56
2018-08-07T11:11:49.139Z,39.49
2018-08-07T11:12:49.210Z,39.75
2018-08-07T11:13:49.311Z,39.77
2018-08-07T11:14:49.371Z,39.80
2018-08-07T11:15:49.446Z,39.93
2018-08-07T11:16:49.519Z,39.83
2018-08-07T11:17:49.594Z,39.74
2018-08-07T11:18:49.679Z,39.86
2018-08-07T11:19:49.759Z,40.04
2018-08-07T11:20:49.827Z,40.20
2018-08-07T11:21:49.907Z,40.24
2018-08-07T11:22:49.988Z,40.14
2018-08-07T11:23:50.067Z,40.02
2018-08-07T11:24:50.221Z,40.00
2018-08-07T11:25:50.215Z,39.67
2018-08-07T11:26:50.295Z,39.55
2018-08-07T11:27:50.367Z,39.52
2018-08-07T11:28:50.447Z,39.77
2018-08-07T11:29:50.559Z,39.63
2018-08-07T11:30:50.599Z,39.63
2018-08-07T11:31:50.676Z,39.87
2018-08-07T11:32:50.755Z,39.99
2018-08-07T11:33:50.840Z,40.06
2018-08-07T11:34:50.915Z,39.97
2018-08-07T11:35:50.993Z,39.62
2018-08-07T11:36:51.064Z,39.55
2018-08-07T11:37:51.139Z,39.72
2018-08-07T11:38:51.320Z,39.93
2018-08-07T11:39:51.296Z,40.02
2018-08-07T11:40:51.372Z,40.18
2018-08-07T11:41:51.449Z,40.33
2018-08-07T11:42:51.528Z,40.20
2018-08-07T11:43:51.608Z,39.58
2018-08-07T11:44:51.688Z,39.81
2018-08-07T11:45:51.752Z,39.83
2018-08-07T11:46:51.840Z,40.16
2018-08-07T11:47:51.951Z,40.38
2018-08-07T11:48:51.997Z,40.28
2018-08-07T11:49:52.072Z,40.26
2018-08-07T11:50:52.144Z,40.23
2018-08-07T11:51:52.220Z,40.38
2018-08-07T11:52:52.304Z,40.40
2018-08-07T11:53:52.536Z,40.40
2018-08-07T11:54:52.452Z,40.31
2018-08-07T11:55:52.528Z,40.31
2018-08-07T11:56:52.609Z,40.24
2018-08-07T11:57:52.684Z,40.35
2018-08-07T11:58:52.768Z,40.14
2018-08-07T11:59:52.845Z,40.14
2018-08-07T12:00:52.920Z,40.12
2018-08-07T12:01:53.031Z,40.20
2018-08-07T12:02:53.085Z,40.30
2018-08-07T12:03:53.308Z,40.14
2018-08-07T12:04:53.229Z,40.16
2018-08-07T12:05:53.300Z,39.87
2018-08-07T12:06:53.400Z,39.96
2018-08-07T12:07:53.476Z,40.06
2018-08-07T12:08:53.557Z,40.00
2018-08-07T12:09:53.621Z,39.97
2018-08-07T12:10:53.689Z,39.81
2018-08-07T12:11:53.764Z,40.04
2018-08-07T12:12:53.849Z,40.16
2018-08-07T12:13:53.925Z,40.23
2018-08-07T12:14:54.005Z,40.26
2018-08-07T12:15:54.073Z,40.31
2018-08-07T12:16:54.157Z,40.41
2018-08-07T12:17:54.229Z,40.40
2018-08-07T12:18:54.649Z,40.33
2018-08-07T12:19:54.393Z,40.43
2018-08-07T12:20:54.461Z,40.28
2018-08-07T12:21:54.537Z,40.05
2018-08-07T12:22:54.613Z,40.11
2018-08-07T12:23:54.699Z,40.34
2018-08-07T12:24:54.781Z,40.56
2018-08-07T12:25:54.857Z,40.81
2018-08-07T12:26:54.926Z,40.85
2018-08-07T12:27:55.005Z,40.82
2018-08-07T12:28:55.093Z,40.88
2018-08-07T12:29:55.153Z,40.95
2018-08-07T12:30:55.234Z,40.59
2018-08-07T12:31:55.310Z,40.68
2018-08-07T12:32:55.391Z,40.91
2018-08-07T12:33:55.469Z,40.82
2018-08-07T12:34:55.551Z,40.91
2018-08-07T12:35:55.618Z,40.92
2018-08-07T12:36:55.705Z,40.87
2018-08-07T12:37:55.773Z,40.85
2018-08-07T12:38:55.857Z,40.88
2018-08-07T12:39:55.933Z,40.91
2018-08-07T12:40:56.006Z,40.85
2018-08-07T12:41:56.082Z,40.69
2018-08-07T12:42:56.154Z,40.68
2018-08-07T12:43:56.574Z,40.87
2018-08-07T12:44:56.313Z,40.68
2018-08-07T12:45:56.390Z,40.62
2018-08-07T12:46:56.470Z,40.65
2018-08-07T12:47:56.554Z,40.75
2018-08-07T12:48:56.630Z,40.84
2018-08-07T12:49:56.706Z,40.87
2018-08-07T12:50:56.790Z,40.82
2018-08-07T12:51:56.854Z,40.84
2018-08-07T12:52:56.934Z,40.85